sensor_id;sensor_type;location;lat;lon;timestamp;P1;durP1;ratioP1;P2;durP2;ratioP2
2728;SDS011;1372;47.956;7.830;2022-08-01T00:01:16;1.60;;;1.50;;
2728;SDS011;1372;47.956;7.830;2022-08-01T00:03:45;2.10;;;1.90;;
2728;SDS011;1372;47.956;7.830;2022-08-01T00:06:13;3.30;;;1.50;;
2728;SDS011;1372;47.956;7.830;2022-08-01T00:08:42;1.40;;;1.30;;
2728;SDS011;1372;47.956;7.830;2022-08-01T00:11:12;1.77;;;1.67;;
2728;SDS011;1372;47.956;7.830;2022-08-01T00:14:01;1.93;;;1.83;;
2728;SDS011;1372;47.956;7.830;2022-08-01T00:16:30;1.43;;;1.33;;
2728;SDS011;1372;47.956;7.830;2022-08-01T00:18:59;1.87;;;1.30;;
2728;SDS011;1372;47.956;7.830;2022-08-01T00:21:27;1.70;;;1.60;;
2728;SDS011;1372;47.956;7.830;2022-08-01T00:23:56;2.13;;;1.70;;
2728;SDS011;1372;47.956;7.830;2022-08-01T00:26:29;1.87;;;1.77;;
2728;SDS011;1372;47.956;7.830;2022-08-01T00:28:58;1.97;;;1.87;;
2728;SDS011;1372;47.956;7.830;2022-08-01T00:31:27;1.60;;;1.50;;
2728;SDS011;1372;47.956;7.830;2022-08-01T00:34:15;1.77;;;1.67;;
2728;SDS011;1372;47.956;7.830;2022-08-01T00:36:44;2.33;;;1.90;;
2728;SDS011;1372;47.956;7.830;2022-08-01T00:39:13;2.10;;;1.90;;
2728;SDS011;1372;47.956;7.830;2022-08-01T00:42:07;1.73;;;1.63;;
2728;SDS011;1372;47.956;7.830;2022-08-01T00:44:56;2.10;;;2.00;;
2728;SDS011;1372;47.956;7.830;2022-08-01T00:47:25;1.93;;;1.53;;
2728;SDS011;1372;47.956;7.830;2022-08-01T00:49:54;2.20;;;2.03;;
2728;SDS011;1372;47.956;7.830;2022-08-01T00:52:23;2.13;;;1.70;;
2728;SDS011;1372;47.956;7.830;2022-08-01T00:54:53;2.03;;;1.80;;
2728;SDS011;1372;47.956;7.830;2022-08-01T00:57:43;1.87;;;1.77;;
2728;SDS011;1372;47.956;7.830;2022-08-01T01:00:27;1.90;;;1.80;;
2728;SDS011;1372;47.956;7.830;2022-08-01T01:02:58;2.17;;;1.97;;
2728;SDS011;1372;47.956;7.830;2022-08-01T01:05:30;1.70;;;1.60;;
2728;SDS011;1372;47.956;7.830;2022-08-01T01:08:08;1.93;;;1.83;;
2728;SDS011;1372;47.956;7.830;2022-08-01T01:10:48;1.77;;;1.67;;
2728;SDS011;1372;47.956;7.830;2022-08-01T01:13:29;1.87;;;1.77;;
2728;SDS011;1372;47.956;7.830;2022-08-01T01:16:14;2.07;;;1.87;;
2728;SDS011;1372;47.956;7.830;2022-08-01T01:18:46;1.90;;;1.57;;
2728;SDS011;1372;47.956;7.830;2022-08-01T01:24:19;2.20;;;2.03;;
2728;SDS011;1372;47.956;7.830;2022-08-01T01:27:02;2.17;;;1.97;;
2728;SDS011;1372;47.956;7.830;2022-08-01T01:29:50;1.93;;;1.83;;
2728;SDS011;1372;47.956;7.830;2022-08-01T01:32:46;2.27;;;2.07;;
2728;SDS011;1372;47.956;7.830;2022-08-01T01:35:20;2.23;;;2.03;;
2728;SDS011;1372;47.956;7.830;2022-08-01T01:37:53;2.23;;;2.13;;
2728;SDS011;1372;47.956;7.830;2022-08-01T01:40:28;2.27;;;2.07;;
2728;SDS011;1372;47.956;7.830;2022-08-01T01:42:59;2.30;;;2.13;;
2728;SDS011;1372;47.956;7.830;2022-08-01T01:45:29;2.47;;;2.00;;
2728;SDS011;1372;47.956;7.830;2022-08-01T01:47:59;2.93;;;2.30;;
2728;SDS011;1372;47.956;7.830;2022-08-01T01:50:32;1.80;;;1.70;;
2728;SDS011;1372;47.956;7.830;2022-08-01T01:53:01;1.80;;;1.70;;
2728;SDS011;1372;47.956;7.830;2022-08-01T01:55:31;3.10;;;2.90;;
2728;SDS011;1372;47.956;7.830;2022-08-01T01:58:15;2.33;;;2.10;;
2728;SDS011;1372;47.956;7.830;2022-08-01T02:00:48;3.60;;;2.20;;
2728;SDS011;1372;47.956;7.830;2022-08-01T02:03:19;2.50;;;2.30;;
2728;SDS011;1372;47.956;7.830;2022-08-01T02:05:50;3.30;;;2.60;;
2728;SDS011;1372;47.956;7.830;2022-08-01T02:08:40;2.40;;;2.20;;
2728;SDS011;1372;47.956;7.830;2022-08-01T02:11:30;3.07;;;2.77;;
2728;SDS011;1372;47.956;7.830;2022-08-01T02:14:01;2.23;;;2.03;;
2728;SDS011;1372;47.956;7.830;2022-08-01T02:16:33;2.80;;;2.60;;
2728;SDS011;1372;47.956;7.830;2022-08-01T02:19:04;2.60;;;2.40;;
2728;SDS011;1372;47.956;7.830;2022-08-01T02:21:35;2.80;;;2.60;;
2728;SDS011;1372;47.956;7.830;2022-08-01T02:24:09;2.37;;;2.17;;
2728;SDS011;1372;47.956;7.830;2022-08-01T02:26:44;2.80;;;2.40;;
2728;SDS011;1372;47.956;7.830;2022-08-01T02:29:19;2.97;;;2.77;;
2728;SDS011;1372;47.956;7.830;2022-08-01T02:31:55;3.00;;;2.70;;
2728;SDS011;1372;47.956;7.830;2022-08-01T02:34:24;2.70;;;2.50;;
2728;SDS011;1372;47.956;7.830;2022-08-01T02:36:58;3.23;;;3.03;;
2728;SDS011;1372;47.956;7.830;2022-08-01T02:39:49;2.67;;;2.47;;
2728;SDS011;1372;47.956;7.830;2022-08-01T02:42:20;2.60;;;2.40;;
2728;SDS011;1372;47.956;7.830;2022-08-01T02:44:51;3.10;;;2.70;;
2728;SDS011;1372;47.956;7.830;2022-08-01T02:47:23;3.50;;;3.20;;
2728;SDS011;1372;47.956;7.830;2022-08-01T02:49:54;3.20;;;2.90;;
2728;SDS011;1372;47.956;7.830;2022-08-01T02:52:24;2.77;;;2.57;;
2728;SDS011;1372;47.956;7.830;2022-08-01T02:54:57;3.00;;;2.80;;
2728;SDS011;1372;47.956;7.830;2022-08-01T02:57:47;4.10;;;3.03;;
2728;SDS011;1372;47.956;7.830;2022-08-01T03:00:22;3.83;;;3.03;;
2728;SDS011;1372;47.956;7.830;2022-08-01T03:02:54;3.10;;;2.80;;
2728;SDS011;1372;47.956;7.830;2022-08-01T03:05:43;3.60;;;3.33;;
2728;SDS011;1372;47.956;7.830;2022-08-01T03:08:16;3.37;;;3.07;;
2728;SDS011;1372;47.956;7.830;2022-08-01T03:10:49;3.37;;;3.10;;
2728;SDS011;1372;47.956;7.830;2022-08-01T03:13:20;3.40;;;2.80;;
2728;SDS011;1372;47.956;7.830;2022-08-01T03:15:53;3.47;;;3.27;;
2728;SDS011;1372;47.956;7.830;2022-08-01T03:18:25;3.23;;;3.00;;
2728;SDS011;1372;47.956;7.830;2022-08-01T03:20:55;3.63;;;3.30;;
2728;SDS011;1372;47.956;7.830;2022-08-01T03:23:26;2.93;;;2.63;;
2728;SDS011;1372;47.956;7.830;2022-08-01T03:26:04;3.60;;;3.30;;
2728;SDS011;1372;47.956;7.830;2022-08-01T03:28:33;3.27;;;3.00;;
2728;SDS011;1372;47.956;7.830;2022-08-01T03:31:08;3.33;;;3.03;;
2728;SDS011;1372;47.956;7.830;2022-08-01T03:33:41;3.63;;;3.10;;
2728;SDS011;1372;47.956;7.830;2022-08-01T03:36:10;3.83;;;3.53;;
2728;SDS011;1372;47.956;7.830;2022-08-01T03:38:41;3.73;;;3.43;;
2728;SDS011;1372;47.956;7.830;2022-08-01T03:41:13;3.63;;;3.33;;
2728;SDS011;1372;47.956;7.830;2022-08-01T03:43:51;4.23;;;3.27;;
2728;SDS011;1372;47.956;7.830;2022-08-01T03:46:26;3.70;;;3.40;;
2728;SDS011;1372;47.956;7.830;2022-08-01T03:49:03;3.53;;;3.20;;
2728;SDS011;1372;47.956;7.830;2022-08-01T03:51:40;3.50;;;3.20;;
2728;SDS011;1372;47.956;7.830;2022-08-01T03:54:13;3.93;;;3.63;;
2728;SDS011;1372;47.956;7.830;2022-08-01T03:56:43;3.17;;;2.93;;
2728;SDS011;1372;47.956;7.830;2022-08-01T03:59:15;3.63;;;3.33;;
2728;SDS011;1372;47.956;7.830;2022-08-01T04:01:46;3.00;;;2.80;;
2728;SDS011;1372;47.956;7.830;2022-08-01T04:04:18;4.13;;;3.73;;
2728;SDS011;1372;47.956;7.830;2022-08-01T04:06:46;3.77;;;3.47;;
2728;SDS011;1372;47.956;7.830;2022-08-01T04:09:17;3.90;;;3.60;;
2728;SDS011;1372;47.956;7.830;2022-08-01T04:11:46;3.50;;;3.30;;
2728;SDS011;1372;47.956;7.830;2022-08-01T04:14:15;3.30;;;3.00;;
2728;SDS011;1372;47.956;7.830;2022-08-01T04:16:44;3.20;;;3.00;;
2728;SDS011;1372;47.956;7.830;2022-08-01T04:19:13;3.73;;;3.43;;
2728;SDS011;1372;47.956;7.830;2022-08-01T04:21:43;3.20;;;3.00;;
2728;SDS011;1372;47.956;7.830;2022-08-01T04:24:12;3.63;;;3.33;;
2728;SDS011;1372;47.956;7.830;2022-08-01T04:26:45;3.63;;;3.33;;
2728;SDS011;1372;47.956;7.830;2022-08-01T04:29:15;3.80;;;3.50;;
2728;SDS011;1372;47.956;7.830;2022-08-01T04:31:49;3.70;;;3.40;;
2728;SDS011;1372;47.956;7.830;2022-08-01T04:34:22;3.30;;;3.10;;
2728;SDS011;1372;47.956;7.830;2022-08-01T04:37:12;3.83;;;3.50;;
2728;SDS011;1372;47.956;7.830;2022-08-01T04:39:43;3.43;;;3.13;;
2728;SDS011;1372;47.956;7.830;2022-08-01T04:42:15;3.73;;;3.43;;
2728;SDS011;1372;47.956;7.830;2022-08-01T04:44:51;4.07;;;3.30;;
2728;SDS011;1372;47.956;7.830;2022-08-01T04:47:22;4.00;;;3.60;;
2728;SDS011;1372;47.956;7.830;2022-08-01T04:49:52;3.80;;;3.50;;
2728;SDS011;1372;47.956;7.830;2022-08-01T04:52:25;3.87;;;3.47;;
2728;SDS011;1372;47.956;7.830;2022-08-01T04:55:21;4.20;;;3.60;;
2728;SDS011;1372;47.956;7.830;2022-08-01T04:58:09;3.87;;;3.57;;
2728;SDS011;1372;47.956;7.830;2022-08-01T05:00:45;3.80;;;3.50;;
2728;SDS011;1372;47.956;7.830;2022-08-01T05:03:14;4.20;;;3.80;;
2728;SDS011;1372;47.956;7.830;2022-08-01T05:05:46;3.70;;;3.40;;
2728;SDS011;1372;47.956;7.830;2022-08-01T05:08:16;3.80;;;3.50;;
2728;SDS011;1372;47.956;7.830;2022-08-01T05:10:45;3.87;;;3.57;;
2728;SDS011;1372;47.956;7.830;2022-08-01T05:13:33;4.93;;;3.83;;
2728;SDS011;1372;47.956;7.830;2022-08-01T05:16:22;4.07;;;3.77;;
2728;SDS011;1372;47.956;7.830;2022-08-01T05:18:50;4.43;;;4.13;;
2728;SDS011;1372;47.956;7.830;2022-08-01T05:21:19;5.73;;;3.97;;
2728;SDS011;1372;47.956;7.830;2022-08-01T05:23:49;4.00;;;3.70;;
2728;SDS011;1372;47.956;7.830;2022-08-01T05:26:18;4.80;;;4.00;;
2728;SDS011;1372;47.956;7.830;2022-08-01T05:28:47;4.13;;;3.83;;
2728;SDS011;1372;47.956;7.830;2022-08-01T05:31:16;3.93;;;3.63;;
2728;SDS011;1372;47.956;7.830;2022-08-01T05:33:49;4.03;;;3.73;;
2728;SDS011;1372;47.956;7.830;2022-08-01T05:36:21;4.60;;;4.20;;
2728;SDS011;1372;47.956;7.830;2022-08-01T05:38:51;4.33;;;3.60;;
2728;SDS011;1372;47.956;7.830;2022-08-01T05:41:19;4.43;;;3.90;;
2728;SDS011;1372;47.956;7.830;2022-08-01T05:43:50;4.03;;;3.73;;
2728;SDS011;1372;47.956;7.830;2022-08-01T05:46:19;3.80;;;3.50;;
2728;SDS011;1372;47.956;7.830;2022-08-01T05:48:48;4.10;;;3.70;;
2728;SDS011;1372;47.956;7.830;2022-08-01T05:51:19;4.50;;;4.10;;
2728;SDS011;1372;47.956;7.830;2022-08-01T05:53:51;4.40;;;4.00;;
2728;SDS011;1372;47.956;7.830;2022-08-01T05:56:20;4.37;;;3.97;;
2728;SDS011;1372;47.956;7.830;2022-08-01T05:58:50;3.93;;;3.63;;
2728;SDS011;1372;47.956;7.830;2022-08-01T06:01:19;4.53;;;4.00;;
2728;SDS011;1372;47.956;7.830;2022-08-01T06:03:48;4.60;;;4.20;;
2728;SDS011;1372;47.956;7.830;2022-08-01T06:06:16;4.17;;;3.87;;
2728;SDS011;1372;47.956;7.830;2022-08-01T06:08:45;4.63;;;4.23;;
2728;SDS011;1372;47.956;7.830;2022-08-01T06:11:35;4.93;;;4.40;;
2728;SDS011;1372;47.956;7.830;2022-08-01T06:14:03;4.93;;;3.90;;
2728;SDS011;1372;47.956;7.830;2022-08-01T06:16:33;5.67;;;4.10;;
2728;SDS011;1372;47.956;7.830;2022-08-01T06:19:02;4.33;;;3.93;;
2728;SDS011;1372;47.956;7.830;2022-08-01T06:21:31;4.60;;;4.20;;
2728;SDS011;1372;47.956;7.830;2022-08-01T06:24:19;4.13;;;3.80;;
2728;SDS011;1372;47.956;7.830;2022-08-01T06:26:51;6.50;;;5.40;;
2728;SDS011;1372;47.956;7.830;2022-08-01T06:29:19;3.93;;;3.63;;
2728;SDS011;1372;47.956;7.830;2022-08-01T06:31:50;4.47;;;4.17;;
2728;SDS011;1372;47.956;7.830;2022-08-01T06:34:20;4.50;;;4.10;;
2728;SDS011;1372;47.956;7.830;2022-08-01T06:36:49;4.13;;;3.73;;
2728;SDS011;1372;47.956;7.830;2022-08-01T06:39:18;4.23;;;3.90;;
2728;SDS011;1372;47.956;7.830;2022-08-01T06:41:50;4.57;;;4.13;;
2728;SDS011;1372;47.956;7.830;2022-08-01T06:44:19;4.50;;;4.20;;
2728;SDS011;1372;47.956;7.830;2022-08-01T06:46:48;4.50;;;4.10;;
2728;SDS011;1372;47.956;7.830;2022-08-01T06:49:20;4.33;;;4.03;;
2728;SDS011;1372;47.956;7.830;2022-08-01T06:51:49;5.73;;;4.03;;
2728;SDS011;1372;47.956;7.830;2022-08-01T06:54:17;3.70;;;3.40;;
2728;SDS011;1372;47.956;7.830;2022-08-01T06:56:46;4.03;;;3.73;;
2728;SDS011;1372;47.956;7.830;2022-08-01T06:59:16;4.20;;;3.80;;
2728;SDS011;1372;47.956;7.830;2022-08-01T07:01:45;4.00;;;3.70;;
2728;SDS011;1372;47.956;7.830;2022-08-01T07:04:14;4.10;;;3.80;;
2728;SDS011;1372;47.956;7.830;2022-08-01T07:06:42;4.10;;;3.60;;
2728;SDS011;1372;47.956;7.830;2022-08-01T07:09:13;4.30;;;4.00;;
2728;SDS011;1372;47.956;7.830;2022-08-01T07:12:02;4.30;;;4.00;;
2728;SDS011;1372;47.956;7.830;2022-08-01T07:14:55;4.37;;;4.00;;
2728;SDS011;1372;47.956;7.830;2022-08-01T07:17:24;4.00;;;3.70;;
2728;SDS011;1372;47.956;7.830;2022-08-01T07:19:53;4.57;;;4.20;;
2728;SDS011;1372;47.956;7.830;2022-08-01T07:22:26;4.53;;;4.10;;
2728;SDS011;1372;47.956;7.830;2022-08-01T07:24:56;4.80;;;4.30;;
2728;SDS011;1372;47.956;7.830;2022-08-01T07:27:45;5.20;;;4.70;;
2728;SDS011;1372;47.956;7.830;2022-08-01T07:30:21;4.60;;;4.20;;
2728;SDS011;1372;47.956;7.830;2022-08-01T07:32:49;5.00;;;4.60;;
2728;SDS011;1372;47.956;7.830;2022-08-01T07:35:38;3.80;;;3.50;;
2728;SDS011;1372;47.956;7.830;2022-08-01T07:38:07;4.90;;;4.50;;
2728;SDS011;1372;47.956;7.830;2022-08-01T07:40:38;4.67;;;4.27;;
2728;SDS011;1372;47.956;7.830;2022-08-01T07:43:09;4.67;;;4.23;;
2728;SDS011;1372;47.956;7.830;2022-08-01T07:45:39;3.93;;;3.63;;
2728;SDS011;1372;47.956;7.830;2022-08-01T07:48:12;4.90;;;4.50;;
2728;SDS011;1372;47.956;7.830;2022-08-01T07:50:41;4.97;;;4.47;;
2728;SDS011;1372;47.956;7.830;2022-08-01T07:53:09;4.73;;;4.20;;
2728;SDS011;1372;47.956;7.830;2022-08-01T07:55:44;5.97;;;4.50;;
2728;SDS011;1372;47.956;7.830;2022-08-01T07:58:15;4.20;;;3.70;;
2728;SDS011;1372;47.956;7.830;2022-08-01T08:00:45;4.63;;;4.33;;
2728;SDS011;1372;47.956;7.830;2022-08-01T08:03:14;4.83;;;4.43;;
2728;SDS011;1372;47.956;7.830;2022-08-01T08:05:44;4.30;;;3.90;;
2728;SDS011;1372;47.956;7.830;2022-08-01T08:08:17;4.07;;;3.77;;
2728;SDS011;1372;47.956;7.830;2022-08-01T08:10:46;3.80;;;3.50;;
2728;SDS011;1372;47.956;7.830;2022-08-01T08:13:14;4.60;;;4.20;;
2728;SDS011;1372;47.956;7.830;2022-08-01T08:15:43;3.87;;;3.57;;
2728;SDS011;1372;47.956;7.830;2022-08-01T08:18:14;5.10;;;4.70;;
2728;SDS011;1372;47.956;7.830;2022-08-01T08:20:43;4.10;;;3.77;;
2728;SDS011;1372;47.956;7.830;2022-08-01T08:23:11;4.40;;;4.10;;
2728;SDS011;1372;47.956;7.830;2022-08-01T08:26:27;3.90;;;3.60;;
2728;SDS011;1372;47.956;7.830;2022-08-01T08:28:56;5.00;;;3.80;;
2728;SDS011;1372;47.956;7.830;2022-08-01T08:31:26;4.03;;;3.63;;
2728;SDS011;1372;47.956;7.830;2022-08-01T08:34:15;4.40;;;4.00;;
2728;SDS011;1372;47.956;7.830;2022-08-01T08:36:43;4.50;;;4.20;;
2728;SDS011;1372;47.956;7.830;2022-08-01T08:39:13;4.23;;;3.70;;
2728;SDS011;1372;47.956;7.830;2022-08-01T08:42:05;4.00;;;3.53;;
2728;SDS011;1372;47.956;7.830;2022-08-01T08:44:35;4.57;;;4.27;;
2728;SDS011;1372;47.956;7.830;2022-08-01T08:47:06;4.67;;;4.30;;
2728;SDS011;1372;47.956;7.830;2022-08-01T08:49:44;4.23;;;3.93;;
2728;SDS011;1372;47.956;7.830;2022-08-01T08:52:15;4.90;;;4.50;;
2728;SDS011;1372;47.956;7.830;2022-08-01T08:54:45;4.23;;;3.83;;
2728;SDS011;1372;47.956;7.830;2022-08-01T08:57:17;5.20;;;4.70;;
2728;SDS011;1372;47.956;7.830;2022-08-01T08:59:48;4.20;;;3.90;;
2728;SDS011;1372;47.956;7.830;2022-08-01T09:02:22;4.93;;;4.40;;
2728;SDS011;1372;47.956;7.830;2022-08-01T09:04:58;10.13;;;3.70;;
2728;SDS011;1372;47.956;7.830;2022-08-01T09:07:27;4.47;;;4.17;;
2728;SDS011;1372;47.956;7.830;2022-08-01T09:10:15;4.00;;;3.70;;
2728;SDS011;1372;47.956;7.830;2022-08-01T09:13:05;4.10;;;3.80;;
2728;SDS011;1372;47.956;7.830;2022-08-01T09:15:37;4.40;;;4.10;;
2728;SDS011;1372;47.956;7.830;2022-08-01T09:18:29;4.70;;;3.97;;
2728;SDS011;1372;47.956;7.830;2022-08-01T09:21:08;4.33;;;3.70;;
2728;SDS011;1372;47.956;7.830;2022-08-01T09:23:44;3.43;;;3.23;;
2728;SDS011;1372;47.956;7.830;2022-08-01T09:26:20;3.90;;;3.60;;
2728;SDS011;1372;47.956;7.830;2022-08-01T09:29:00;4.10;;;3.70;;
2728;SDS011;1372;47.956;7.830;2022-08-01T09:31:39;3.93;;;3.63;;
2728;SDS011;1372;47.956;7.830;2022-08-01T09:34:15;4.10;;;3.80;;
2728;SDS011;1372;47.956;7.830;2022-08-01T09:37:12;6.03;;;3.63;;
2728;SDS011;1372;47.956;7.830;2022-08-01T09:39:59;3.23;;;2.90;;
2728;SDS011;1372;47.956;7.830;2022-08-01T09:42:29;3.30;;;3.00;;
2728;SDS011;1372;47.956;7.830;2022-08-01T09:48:10;3.40;;;3.10;;
2728;SDS011;1372;47.956;7.830;2022-08-01T09:50:41;3.20;;;3.00;;
2728;SDS011;1372;47.956;7.830;2022-08-01T09:53:12;2.53;;;2.33;;
2728;SDS011;1372;47.956;7.830;2022-08-01T09:55:50;2.40;;;2.30;;
2728;SDS011;1372;47.956;7.830;2022-08-01T09:58:20;3.00;;;2.80;;
2728;SDS011;1372;47.956;7.830;2022-08-01T10:00:57;3.13;;;2.93;;
2728;SDS011;1372;47.956;7.830;2022-08-01T10:03:28;3.33;;;3.13;;
2728;SDS011;1372;47.956;7.830;2022-08-01T10:06:21;4.20;;;3.23;;
2728;SDS011;1372;47.956;7.830;2022-08-01T10:08:52;3.20;;;3.00;;
2728;SDS011;1372;47.956;7.830;2022-08-01T10:11:21;3.03;;;2.83;;
2728;SDS011;1372;47.956;7.830;2022-08-01T10:14:12;3.43;;;3.13;;
2728;SDS011;1372;47.956;7.830;2022-08-01T10:16:46;3.07;;;2.80;;
2728;SDS011;1372;47.956;7.830;2022-08-01T10:19:37;3.40;;;3.00;;
2728;SDS011;1372;47.956;7.830;2022-08-01T10:22:12;3.73;;;2.30;;
2728;SDS011;1372;47.956;7.830;2022-08-01T10:24:44;3.40;;;2.87;;
2728;SDS011;1372;47.956;7.830;2022-08-01T10:27:15;2.90;;;2.70;;
2728;SDS011;1372;47.956;7.830;2022-08-01T10:29:49;2.40;;;2.03;;
2728;SDS011;1372;47.956;7.830;2022-08-01T10:32:26;3.20;;;2.90;;
2728;SDS011;1372;47.956;7.830;2022-08-01T10:34:55;3.00;;;2.80;;
2728;SDS011;1372;47.956;7.830;2022-08-01T10:37:25;2.63;;;2.43;;
2728;SDS011;1372;47.956;7.830;2022-08-01T10:39:55;2.60;;;2.40;;
2728;SDS011;1372;47.956;7.830;2022-08-01T10:42:45;3.07;;;2.57;;
2728;SDS011;1372;47.956;7.830;2022-08-01T10:45:14;3.37;;;3.07;;
2728;SDS011;1372;47.956;7.830;2022-08-01T10:47:44;3.10;;;2.90;;
2728;SDS011;1372;47.956;7.830;2022-08-01T10:50:21;2.60;;;2.40;;
2728;SDS011;1372;47.956;7.830;2022-08-01T10:53:13;2.87;;;2.67;;
2728;SDS011;1372;47.956;7.830;2022-08-01T10:55:50;2.57;;;2.37;;
2728;SDS011;1372;47.956;7.830;2022-08-01T10:58:29;3.00;;;2.80;;
2728;SDS011;1372;47.956;7.830;2022-08-01T11:01:29;2.43;;;2.33;;
2728;SDS011;1372;47.956;7.830;2022-08-01T11:04:04;2.53;;;2.40;;
2728;SDS011;1372;47.956;7.830;2022-08-01T11:06:43;2.47;;;2.37;;
2728;SDS011;1372;47.956;7.830;2022-08-01T11:09:30;3.40;;;2.73;;
2728;SDS011;1372;47.956;7.830;2022-08-01T11:12:09;2.53;;;2.33;;
2728;SDS011;1372;47.956;7.830;2022-08-01T11:17:56;2.03;;;1.93;;
2728;SDS011;1372;47.956;7.830;2022-08-01T11:20:28;1.97;;;1.87;;
2728;SDS011;1372;47.956;7.830;2022-08-01T11:26:08;2.33;;;2.13;;
2728;SDS011;1372;47.956;7.830;2022-08-01T11:29:09;2.20;;;2.10;;
2728;SDS011;1372;47.956;7.830;2022-08-01T11:31:49;2.20;;;2.03;;
2728;SDS011;1372;47.956;7.830;2022-08-01T11:34:19;1.90;;;1.80;;
2728;SDS011;1372;47.956;7.830;2022-08-01T11:36:50;3.80;;;1.83;;
2728;SDS011;1372;47.956;7.830;2022-08-01T11:42:44;2.30;;;2.20;;
2728;SDS011;1372;47.956;7.830;2022-08-01T11:45:13;2.17;;;1.97;;
2728;SDS011;1372;47.956;7.830;2022-08-01T11:47:46;2.10;;;1.90;;
2728;SDS011;1372;47.956;7.830;2022-08-01T11:50:29;2.40;;;2.20;;
2728;SDS011;1372;47.956;7.830;2022-08-01T11:53:19;2.70;;;2.50;;
2728;SDS011;1372;47.956;7.830;2022-08-01T11:55:51;2.77;;;2.57;;
2728;SDS011;1372;47.956;7.830;2022-08-01T11:58:42;2.70;;;2.50;;
2728;SDS011;1372;47.956;7.830;2022-08-01T12:01:11;2.63;;;2.43;;
2728;SDS011;1372;47.956;7.830;2022-08-01T12:04:01;3.50;;;3.17;;
2728;SDS011;1372;47.956;7.830;2022-08-01T12:06:29;2.90;;;2.70;;
2728;SDS011;1372;47.956;7.830;2022-08-01T12:09:14;2.73;;;2.33;;
2728;SDS011;1372;47.956;7.830;2022-08-01T12:11:47;2.90;;;2.70;;
2728;SDS011;1372;47.956;7.830;2022-08-01T12:14:19;2.33;;;2.13;;
2728;SDS011;1372;47.956;7.830;2022-08-01T12:17:08;2.80;;;2.60;;
2728;SDS011;1372;47.956;7.830;2022-08-01T12:19:36;2.60;;;2.40;;
2728;SDS011;1372;47.956;7.830;2022-08-01T12:22:07;2.70;;;2.50;;
2728;SDS011;1372;47.956;7.830;2022-08-01T12:25:04;2.70;;;2.50;;
2728;SDS011;1372;47.956;7.830;2022-08-01T12:27:34;2.63;;;2.43;;
2728;SDS011;1372;47.956;7.830;2022-08-01T12:30:06;3.00;;;2.80;;
2728;SDS011;1372;47.956;7.830;2022-08-01T12:32:38;3.33;;;3.00;;
2728;SDS011;1372;47.956;7.830;2022-08-01T12:35:10;4.00;;;2.43;;
2728;SDS011;1372;47.956;7.830;2022-08-01T12:38:04;2.80;;;2.60;;
2728;SDS011;1372;47.956;7.830;2022-08-01T12:40:36;2.63;;;2.47;;
2728;SDS011;1372;47.956;7.830;2022-08-01T12:43:15;2.80;;;2.60;;
2728;SDS011;1372;47.956;7.830;2022-08-01T12:45:58;3.00;;;2.70;;
2728;SDS011;1372;47.956;7.830;2022-08-01T12:48:28;3.43;;;2.70;;
2728;SDS011;1372;47.956;7.830;2022-08-01T12:51:02;2.90;;;2.70;;
2728;SDS011;1372;47.956;7.830;2022-08-01T12:53:33;3.10;;;2.80;;
2728;SDS011;1372;47.956;7.830;2022-08-01T12:56:07;2.80;;;2.60;;
2728;SDS011;1372;47.956;7.830;2022-08-01T12:58:40;2.50;;;2.40;;
2728;SDS011;1372;47.956;7.830;2022-08-01T13:01:10;2.63;;;2.43;;
2728;SDS011;1372;47.956;7.830;2022-08-01T13:03:40;2.67;;;2.53;;
2728;SDS011;1372;47.956;7.830;2022-08-01T13:06:10;2.43;;;2.33;;
2728;SDS011;1372;47.956;7.830;2022-08-01T13:08:41;2.53;;;2.40;;
2728;SDS011;1372;47.956;7.830;2022-08-01T13:11:30;2.93;;;2.73;;
2728;SDS011;1372;47.956;7.830;2022-08-01T13:13:59;2.57;;;2.40;;
2728;SDS011;1372;47.956;7.830;2022-08-01T13:16:29;2.33;;;2.23;;
2728;SDS011;1372;47.956;7.830;2022-08-01T13:19:19;2.60;;;2.40;;
2728;SDS011;1372;47.956;7.830;2022-08-01T13:21:55;2.93;;;2.73;;
2728;SDS011;1372;47.956;7.830;2022-08-01T13:24:25;2.73;;;2.53;;
2728;SDS011;1372;47.956;7.830;2022-08-01T13:26:58;2.70;;;2.50;;
2728;SDS011;1372;47.956;7.830;2022-08-01T13:29:31;2.90;;;2.70;;
2728;SDS011;1372;47.956;7.830;2022-08-01T13:32:13;3.17;;;2.97;;
2728;SDS011;1372;47.956;7.830;2022-08-01T13:35:00;3.03;;;2.80;;
2728;SDS011;1372;47.956;7.830;2022-08-01T13:37:30;2.60;;;2.40;;
2728;SDS011;1372;47.956;7.830;2022-08-01T13:39:59;2.87;;;2.67;;
2728;SDS011;1372;47.956;7.830;2022-08-01T13:42:28;3.27;;;2.97;;
2728;SDS011;1372;47.956;7.830;2022-08-01T13:44:57;3.40;;;3.10;;
2728;SDS011;1372;47.956;7.830;2022-08-01T13:47:47;2.90;;;2.70;;
2728;SDS011;1372;47.956;7.830;2022-08-01T13:50:29;2.63;;;2.47;;
2728;SDS011;1372;47.956;7.830;2022-08-01T13:52:59;3.33;;;3.10;;
2728;SDS011;1372;47.956;7.830;2022-08-01T13:55:28;2.97;;;2.40;;
2728;SDS011;1372;47.956;7.830;2022-08-01T13:58:00;3.40;;;3.07;;
2728;SDS011;1372;47.956;7.830;2022-08-01T14:00:30;3.37;;;2.80;;
2728;SDS011;1372;47.956;7.830;2022-08-01T14:03:01;3.13;;;2.93;;
2728;SDS011;1372;47.956;7.830;2022-08-01T14:05:29;3.50;;;3.20;;
2728;SDS011;1372;47.956;7.830;2022-08-01T14:07:58;3.17;;;2.93;;
2728;SDS011;1372;47.956;7.830;2022-08-01T14:10:27;3.30;;;3.10;;
2728;SDS011;1372;47.956;7.830;2022-08-01T14:12:57;3.73;;;3.43;;
2728;SDS011;1372;47.956;7.830;2022-08-01T14:15:25;3.40;;;3.20;;
2728;SDS011;1372;47.956;7.830;2022-08-01T14:18:07;3.50;;;3.20;;
2728;SDS011;1372;47.956;7.830;2022-08-01T14:20:37;4.13;;;3.83;;
2728;SDS011;1372;47.956;7.830;2022-08-01T14:23:07;3.67;;;3.47;;
2728;SDS011;1372;47.956;7.830;2022-08-01T14:25:36;4.67;;;3.40;;
2728;SDS011;1372;47.956;7.830;2022-08-01T14:28:44;3.70;;;3.40;;
2728;SDS011;1372;47.956;7.830;2022-08-01T14:31:13;3.70;;;3.40;;
2728;SDS011;1372;47.956;7.830;2022-08-01T14:33:43;4.30;;;3.90;;
2728;SDS011;1372;47.956;7.830;2022-08-01T14:36:14;3.83;;;3.60;;
2728;SDS011;1372;47.956;7.830;2022-08-01T14:38:56;3.67;;;3.47;;
2728;SDS011;1372;47.956;7.830;2022-08-01T14:41:26;3.97;;;3.67;;
2728;SDS011;1372;47.956;7.830;2022-08-01T14:43:56;4.43;;;3.93;;
2728;SDS011;1372;47.956;7.830;2022-08-01T14:46:28;3.00;;;2.80;;
2728;SDS011;1372;47.956;7.830;2022-08-01T14:48:59;3.33;;;3.13;;
2728;SDS011;1372;47.956;7.830;2022-08-01T14:51:29;3.83;;;3.53;;
2728;SDS011;1372;47.956;7.830;2022-08-01T14:53:59;4.00;;;3.60;;
2728;SDS011;1372;47.956;7.830;2022-08-01T14:56:28;3.60;;;3.30;;
2728;SDS011;1372;47.956;7.830;2022-08-01T14:58:56;3.77;;;3.50;;
2728;SDS011;1372;47.956;7.830;2022-08-01T15:01:26;3.67;;;3.37;;
2728;SDS011;1372;47.956;7.830;2022-08-01T15:03:55;3.37;;;3.17;;
2728;SDS011;1372;47.956;7.830;2022-08-01T15:06:25;3.60;;;3.30;;
2728;SDS011;1372;47.956;7.830;2022-08-01T15:08:56;3.87;;;3.53;;
2728;SDS011;1372;47.956;7.830;2022-08-01T15:11:24;3.93;;;3.63;;
2728;SDS011;1372;47.956;7.830;2022-08-01T15:14:00;3.20;;;3.00;;
2728;SDS011;1372;47.956;7.830;2022-08-01T15:16:46;3.77;;;3.47;;
2728;SDS011;1372;47.956;7.830;2022-08-01T15:19:16;4.03;;;3.70;;
2728;SDS011;1372;47.956;7.830;2022-08-01T15:21:47;3.90;;;3.60;;
2728;SDS011;1372;47.956;7.830;2022-08-01T15:24:16;3.03;;;2.83;;
2728;SDS011;1372;47.956;7.830;2022-08-01T15:26:45;2.93;;;2.73;;
2728;SDS011;1372;47.956;7.830;2022-08-01T15:29:14;3.43;;;3.23;;
2728;SDS011;1372;47.956;7.830;2022-08-01T15:31:43;3.30;;;3.00;;
2728;SDS011;1372;47.956;7.830;2022-08-01T15:34:14;3.73;;;3.43;;
2728;SDS011;1372;47.956;7.830;2022-08-01T15:36:47;4.50;;;4.10;;
2728;SDS011;1372;47.956;7.830;2022-08-01T15:39:18;4.07;;;3.47;;
2728;SDS011;1372;47.956;7.830;2022-08-01T15:41:49;3.40;;;2.60;;
2728;SDS011;1372;47.956;7.830;2022-08-01T15:44:18;3.20;;;3.00;;
2728;SDS011;1372;47.956;7.830;2022-08-01T15:46:48;5.93;;;3.60;;
2728;SDS011;1372;47.956;7.830;2022-08-01T15:49:17;3.50;;;3.20;;
2728;SDS011;1372;47.956;7.830;2022-08-01T15:51:50;3.70;;;3.40;;
2728;SDS011;1372;47.956;7.830;2022-08-01T15:54:19;3.27;;;3.00;;
2728;SDS011;1372;47.956;7.830;2022-08-01T15:56:48;4.27;;;3.93;;
2728;SDS011;1372;47.956;7.830;2022-08-01T15:59:17;3.70;;;3.40;;
2728;SDS011;1372;47.956;7.830;2022-08-01T16:02:05;4.20;;;3.33;;
2728;SDS011;1372;47.956;7.830;2022-08-01T16:04:35;3.70;;;3.40;;
2728;SDS011;1372;47.956;7.830;2022-08-01T16:07:25;3.80;;;3.50;;
2728;SDS011;1372;47.956;7.830;2022-08-01T16:09:56;3.90;;;3.60;;
2728;SDS011;1372;47.956;7.830;2022-08-01T16:12:24;3.90;;;3.60;;
2728;SDS011;1372;47.956;7.830;2022-08-01T16:14:59;5.93;;;3.50;;